Time;durP1;ratioP1;P1;durP2;ratioP2;P2;SDS_P1;SDS_P2;PMS_P1;PMS_P2;Temp;Humidity;BMP_temperature;BMP_pressure;BME280_temperature;BME280_humidity;BME280_pressure;Samples;Min_cycle;Max_cycle;Signal;HPM_P1;HPM_P2
2023/08/08 00:00:40;;;;;;;4.27;1.60;;;;;;;18.03;100.00;101291.16;2508207;23;20215;-68
2023/08/08 00:01:42;;;;;;;2.10;1.43;;;;;;;17.45;100.00;101217.59;2508568;23;20162;-68
2023/08/08 00:02:43;;;;;;;2.70;1.53;;;;;;;17.97;100.00;101306.28;2508777;23;20560;-68
2023/08/08 00:03:43;;;;;;;5.03;1.53;;;;;;;17.35;100.00;101211.19;2496125;23;20404;-68
2023/08/08 00:04:44;;;;;;;4.47;1.50;;;;;;;17.65;100.00;101259.22;2496215;23;20176;-68
2023/08/08 00:05:44;;;;;;;3.63;1.40;;;;;;;17.96;100.00;101299.88;2508841;23;20159;-69
2023/08/08 00:06:44;;;;;;;2.57;1.57;;;;;;;18.01;100.00;101299.25;2507858;23;20603;-68
2023/08/08 00:07:45;;;;;;;4.63;1.87;;;;;;;18.02;100.00;101298.78;2508383;23;20527;-68
2023/08/08 00:08:45;;;;;;;3.63;1.60;;;;;;;18.07;100.00;101314.22;2509038;23;20163;-68
2023/08/08 00:09:46;;;;;;;3.40;1.70;;;;;;;18.13;100.00;101309.56;2508952;23;20231;-68
2023/08/08 00:10:46;;;;;;;3.67;2.00;;;;;;;18.14;100.00;101313.91;2508189;23;20156;-68
2023/08/08 00:11:46;;;;;;;4.00;1.27;;;;;;;18.11;100.00;101314.84;2508869;23;20238;-68
2023/08/08 00:12:47;;;;;;;1.70;1.40;;;;;;;17.67;100.00;101242.69;2508791;23;20159;-68
2023/08/08 00:13:47;;;;;;;3.17;1.50;;;;;;;17.36;100.00;101209.16;2508927;23;20231;-68
2023/08/08 00:14:48;;;;;;;3.60;1.50;;;;;;;18.08;100.00;101313.75;2508580;23;20152;-68
2023/08/08 00:15:48;;;;;;;3.67;1.90;;;;;;;18.03;100.00;101313.59;2508734;23;20213;-68
2023/08/08 00:16:48;;;;;;;2.43;1.67;;;;;;;17.92;100.00;101294.41;2509027;23;20179;-68
2023/08/08 00:17:49;;;;;;;3.50;1.60;;;;;;;18.13;100.00;101300.34;2508599;23;20159;-68
2023/08/08 00:18:52;;;;;;;4.43;1.50;;;;;;;18.05;100.00;101297.06;2508794;23;20156;-68
2023/08/08 00:19:52;;;;;;;1.80;1.47;;;;;;;18.03;100.00;101277.91;2508966;23;20627;-68
2023/08/08 00:20:52;;;;;;;5.07;1.50;;;;;;;18.10;100.00;101282.44;2507552;23;20380;-68
2023/08/08 00:21:53;;;;;;;2.00;1.40;;;;;;;18.13;100.00;101277.91;2508887;23;20227;-68
2023/08/08 00:22:53;;;;;;;3.40;1.80;;;;;;;18.13;100.00;101273.84;2508882;23;20151;-68
2023/08/08 00:23:54;;;;;;;1.80;1.60;;;;;;;18.17;100.00;101272.94;2509000;23;20156;-68
2023/08/08 00:24:54;;;;;;;2.03;1.50;;;;;;;18.13;100.00;101277.91;2508710;23;20156;-68
2023/08/08 00:25:54;;;;;;;2.20;1.60;;;;;;;18.14;100.00;101266.22;2509089;23;20629;-68
2023/08/08 00:26:55;;;;;;;2.97;1.93;;;;;;;18.17;100.00;101273.69;2508544;23;20516;-68
2023/08/08 00:27:55;;;;;;;3.63;1.80;;;;;;;18.19;100.00;101269.16;2508368;23;20180;-68
2023/08/08 00:28:56;;;;;;;2.90;1.60;;;;;;;18.23;100.00;101273.84;2496063;23;20228;-68
2023/08/08 00:29:56;;;;;;;3.63;1.77;;;;;;;18.02;100.00;101241.91;2496145;23;20248;-68
2023/08/08 00:30:56;;;;;;;2.37;1.70;;;;;;;18.19;100.00;101269.16;2508460;23;20166;-68
2023/08/08 00:31:57;;;;;;;4.07;1.70;;;;;;;17.78;100.00;101219.34;2508638;23;20210;-68
2023/08/08 00:32:57;;;;;;;3.33;1.80;;;;;;;18.22;100.00;101289.13;2508767;23;20159;-68
2023/08/08 00:33:58;;;;;;;3.07;1.60;;;;;;;18.21;100.00;101288.34;2508783;23;20165;-68
2023/08/08 00:34:58;;;;;;;1.83;1.47;;;;;;;18.05;100.00;101269.03;2508254;23;20192;-68
2023/08/08 00:35:58;;;;;;;3.90;1.60;;;;;;;18.19;100.00;101300.03;2508774;23;20152;-68
2023/08/08 00:36:59;;;;;;;1.93;1.70;;;;;;;17.29;100.00;101173.81;2508677;23;20163;-68
2023/08/08 00:37:59;;;;;;;2.77;1.90;;;;;;;18.11;100.00;101308.47;2508455;23;20160;-68
2023/08/08 00:39:00;;;;;;;2.40;1.90;;;;;;;18.13;100.00;101303.16;2508413;23;20156;-69
2023/08/08 00:40:00;;;;;;;3.37;1.90;;;;;;;18.17;100.00;101301.75;2508632;23;20234;-69
2023/08/08 00:41:01;;;;;;;2.43;1.63;;;;;;;18.08;100.00;101295.38;2508572;23;20152;-69
2023/08/08 00:42:01;;;;;;;3.67;2.07;;;;;;;18.07;100.00;101305.78;2509173;23;20159;-69
2023/08/08 00:43:01;;;;;;;4.27;1.70;;;;;;;18.04;100.00;101306.75;2508723;23;20231;-68
2023/08/08 00:44:02;;;;;;;2.10;1.80;;;;;;;18.07;100.00;101305.78;2508840;23;20157;-68
2023/08/08 00:45:03;;;;;;;2.57;1.70;;;;;;;18.12;100.00;101307.97;2508823;23;20156;-68
2023/08/08 00:46:04;;;;;;;2.67;2.00;;;;;;;18.16;100.00;101319.06;2508740;23;20236;-68
2023/08/08 00:47:04;;;;;;;2.40;1.80;;;;;;;18.21;100.00;101310.03;2508501;23;20798;-68
2023/08/08 00:48:05;;;;;;;4.67;1.90;;;;;;;18.19;100.00;101310.47;2508537;23;20164;-69
2023/08/08 00:49:06;;;;;;;2.40;1.60;;;;;;;18.21;100.00;101315.63;2508366;23;20156;-69
2023/08/08 00:50:08;;;;;;;2.93;1.80;;;;;;;18.16;100.00;101308.59;2508206;23;20673;-68
2023/08/08 00:51:08;;;;;;;3.23;1.80;;;;;;;17.60;100.00;101226.97;2508181;23;20303;-68
2023/08/08 00:52:10;;;;;;;2.47;1.87;;;;;;;18.13;100.00;101318.72;2508257;23;20490;-68
2023/08/08 00:53:10;;;;;;;4.00;1.70;;;;;;;17.88;100.00;101279.78;2508629;23;20602;-69
2023/08/08 00:54:11;;;;;;;1.87;1.63;;;;;;;18.08;100.00;101321.41;2508273;23;20866;-68
2023/08/08 00:55:12;;;;;;;2.33;1.43;;;;;;;18.10;100.00;101332.91;2508493;23;20152;-70
2023/08/08 00:56:13;;;;;;;3.70;1.80;;;;;;;17.56;100.00;101265.56;2508730;23;20155;-68
2023/08/08 00:57:14;;;;;;;3.07;1.83;;;;;;;18.04;100.00;101329.94;2508166;23;20158;-69
2023/08/08 00:58:16;;;;;;;3.70;1.90;;;;;;;17.35;100.00;101218.78;2508681;23;20372;-69
2023/08/08 00:59:19;;;;;;;3.10;1.80;;;;;;;18.08;100.00;101327.78;2508919;23;20154;-71
2023/08/08 01:00:19;;;;;;;2.67;1.60;;;;;;;17.99;100.00;101307.38;2495446;23;20389;-68
2023/08/08 01:01:19;;;;;;;2.53;1.77;;;;;;;17.12;100.00;101183.72;2496175;23;20849;-68
2023/08/08 01:02:20;;;;;;;3.23;1.87;;;;;;;17.73;100.00;101270.41;2508623;23;20175;-68
2023/08/08 01:03:21;;;;;;;1.63;1.43;;;;;;;18.08;100.00;101327.00;2508447;23;20500;-69
2023/08/08 01:04:25;;;;;;;5.53;2.17;;;;;;;18.13;100.00;101332.00;2508372;23;20198;-68
2023/08/08 01:05:33;;;;;;;2.30;1.70;;;;;;;18.18;100.00;101339.78;2508554;23;20236;-68
2023/08/08 01:06:53;;;;;;;2.30;1.93;;;;;;;18.12;100.00;101332.47;2508643;23;20375;-68
2023/08/08 01:08:04;;;;;;;2.40;1.90;;;;;;;18.17;100.00;101346.63;2508262;23;20376;-68
2023/08/08 01:09:23;;;;;;;6.83;2.40;;;;;;;18.18;100.00;101343.34;2508612;23;20368;-68
2023/08/08 01:10:29;;;;;;;3.17;2.23;;;;;;;18.23;100.00;101345.53;2507975;23;20373;-72
2023/08/08 01:11:33;;;;;;;2.13;1.90;;;;;;;18.27;100.00;101336.97;2508436;23;20387;-69
2023/08/08 01:13:00;;;;;;;4.40;2.00;;;;;;;18.22;100.00;101328.41;2508480;23;20392;-69
2023/08/08 01:14:02;;;;;;;3.00;1.80;;;;;;;18.27;100.00;101339.00;2508806;23;20461;-68
2023/08/08 01:15:04;;;;;;;1.90;1.80;;;;;;;18.30;100.00;101344.47;2508426;23;20378;-69
2023/08/08 01:16:06;;;;;;;3.27;1.53;;;;;;;18.28;100.00;101342.13;2508490;23;20882;-68
2023/08/08 01:17:06;;;;;;;2.40;1.90;;;;;;;18.22;100.00;101323.56;2508298;23;20471;-68
2023/08/08 01:18:09;;;;;;;4.53;2.20;;;;;;;18.34;100.00;101341.53;2507640;23;20391;-68
2023/08/08 01:19:14;;;;;;;3.27;1.90;;;;;;;18.19;100.00;101307.69;2508512;23;20148;-69
2023/08/08 01:20:16;;;;;;;3.10;1.93;;;;;;;17.67;100.00;101247.06;2508081;23;20716;-69
2023/08/08 01:21:17;;;;;;;3.00;1.70;;;;;;;17.83;100.00;101280.38;2508632;23;20385;-69
2023/08/08 01:22:25;;;;;;;1.90;1.63;;;;;;;18.33;100.00;101354.78;2508540;23;20371;-69
2023/08/08 01:24:06;;;;;;;4.57;1.70;;;;;;;18.39;100.00;101352.13;2508823;23;20157;-69
2023/08/08 01:25:08;;;;;;;2.60;2.10;;;;;;;17.83;100.00;101257.97;2483539;23;20395;-68
2023/08/08 01:26:09;;;;;;;3.47;1.97;;;;;;;17.77;100.00;101277.91;2508650;23;20424;-69
2023/08/08 01:27:11;;;;;;;2.87;1.90;;;;;;;18.40;100.00;101345.25;2508081;23;20917;-69
2023/08/08 01:28:11;;;;;;;2.80;2.00;;;;;;;18.41;100.00;101346.81;2508679;23;20151;-68
2023/08/08 01:29:11;;;;;;;3.37;2.03;;;;;;;18.42;100.00;101357.56;2508594;23;20378;-68
2023/08/08 01:30:12;;;;;;;2.77;2.00;;;;;;;18.38;100.00;101354.13;2508296;23;20614;-69
2023/08/08 01:31:12;;;;;;;2.10;1.80;;;;;;;18.33;100.00;101351.19;2508549;23;20151;-69
2023/08/08 01:32:13;;;;;;;3.23;1.63;;;;;;;18.27;100.00;101355.84;2507851;23;20234;-68
2023/08/08 01:33:14;;;;;;;2.43;1.60;;;;;;;18.27;100.00;101356.59;2508351;23;20182;-69
2023/08/08 01:34:14;;;;;;;4.70;1.77;;;;;;;18.26;100.00;101355.06;2508539;23;20224;-69
2023/08/08 01:35:15;;;;;;;2.93;1.80;;;;;;;18.26;100.00;101352.25;2508541;23;20247;-69
2023/08/08 01:36:30;;;;;;;4.63;1.70;;;;;;;18.28;100.00;101358.94;2508467;23;20225;-68
2023/08/08 01:37:39;;;;;;;2.03;1.80;;;;;;;18.29;100.00;101360.50;2508403;23;20232;-68
2023/08/08 01:38:43;;;;;;;4.43;1.70;;;;;;;18.29;100.00;101362.53;2508563;23;20439;-68
2023/08/08 01:39:44;;;;;;;4.13;1.70;;;;;;;18.30;100.00;101361.28;2508617;23;20868;-68
2023/08/08 01:40:45;;;;;;;3.07;1.70;;;;;;;18.34;100.00;101361.16;2507869;23;20471;-69
2023/08/08 01:41:48;;;;;;;2.07;1.60;;;;;;;18.32;100.00;101366.44;2508676;23;20384;-68
2023/08/08 01:42:49;;;;;;;2.90;1.57;;;;;;;18.32;100.00;101369.25;2508804;23;20661;-69
2023/08/08 01:43:50;;;;;;;1.80;1.50;;;;;;;18.25;100.00;101359.09;2496030;23;20460;-69
2023/08/08 01:44:53;;;;;;;2.60;1.50;;;;;;;17.29;100.00;101213.03;2495900;23;20916;-68
2023/08/08 01:45:54;;;;;;;2.67;1.90;;;;;;;18.29;100.00;101360.50;2508666;23;20158;-69
2023/08/08 01:46:55;;;;;;;1.63;1.53;;;;;;;18.23;100.00;101361.63;2508157;23;20388;-68
2023/08/08 01:47:55;;;;;;;3.30;1.70;;;;;;;18.22;100.00;101353.66;2508134;23;21090;-68
2023/08/08 01:48:59;;;;;;;3.73;1.80;;;;;;;18.27;100.00;101367.81;2508540;23;20480;-68
2023/08/08 01:49:59;;;;;;;3.27;1.60;;;;;;;18.23;100.00;101349.59;2508221;23;20625;-70
2023/08/08 01:51:00;;;;;;;4.00;1.90;;;;;;;18.15;100.00;101346.31;2508231;23;20804;-68
2023/08/08 01:52:00;;;;;;;4.23;1.83;;;;;;;18.13;100.00;101348.81;2508548;23;20180;-68
2023/08/08 01:53:01;;;;;;;3.03;1.47;;;;;;;18.08;100.00;101354.25;2508628;23;20622;-68
2023/08/08 01:54:02;;;;;;;1.87;1.43;;;;;;;18.06;100.00;101353.97;2508186;23;20205;-69
2023/08/08 01:55:02;;;;;;;1.33;1.23;;;;;;;18.06;100.00;101359.56;2508486;23;20642;-68
2023/08/08 01:56:03;;;;;;;3.77;1.50;;;;;;;18.03;100.00;101356.44;2495830;23;20163;-68
2023/08/08 01:57:04;;;;;;;3.80;1.50;;;;;;;18.02;100.00;101366.09;2495619;23;20159;-68
2023/08/08 01:58:04;;;;;;;2.20;1.40;;;;;;;18.03;100.00;101362.03;2508627;23;20215;-69
2023/08/08 01:59:05;;;;;;;5.63;1.77;;;;;;;18.03;100.00;101364.09;2508428;23;20497;-68
2023/08/08 02:00:07;;;;;;;3.00;1.87;;;;;;;18.04;100.00;101365.63;2508097;23;20155;-68
2023/08/08 02:01:08;;;;;;;5.27;1.50;;;;;;;18.01;100.00;101363.75;2508046;23;20148;-68
2023/08/08 02:02:08;;;;;;;2.27;1.70;;;;;;;18.03;100.00;101366.91;2508660;23;20418;-68
2023/08/08 02:03:09;;;;;;;5.30;1.70;;;;;;;18.08;100.00;101378.25;2508478;23;20165;-68
2023/08/08 02:04:10;;;;;;;3.17;1.80;;;;;;;18.09;100.00;101377.00;2508518;23;20207;-68
2023/08/08 02:05:10;;;;;;;2.60;1.63;;;;;;;18.12;100.00;101378.09;2508763;23;20152;-68
2023/08/08 02:06:11;;;;;;;2.50;1.80;;;;;;;18.12;100.00;101377.34;2508499;23;20383;-68
2023/08/08 02:07:11;;;;;;;4.10;1.87;;;;;;;18.07;100.00;101367.50;2507262;23;20164;-69
2023/08/08 02:08:12;;;;;;;4.27;1.70;;;;;;;18.06;100.00;101376.41;2507930;23;20235;-68
2023/08/08 02:09:15;;;;;;;3.30;1.90;;;;;;;17.99;100.00;101369.81;2508703;23;20152;-68
2023/08/08 02:10:15;;;;;;;2.70;1.40;;;;;;;17.84;100.00;101354.06;2507868;23;20387;-68
2023/08/08 02:11:16;;;;;;;2.10;1.80;;;;;;;18.02;100.00;101380.13;2508541;23;20439;-68
2023/08/08 02:12:16;;;;;;;2.93;1.80;;;;;;;18.04;100.00;101376.84;2508225;23;20214;-68
2023/08/08 02:13:17;;;;;;;4.23;1.93;;;;;;;18.06;100.00;101379.22;2508436;23;20151;-68
2023/08/08 02:14:17;;;;;;;2.73;1.50;;;;;;;18.05;100.00;101378.41;2508407;23;20160;-68
2023/08/08 02:15:17;;;;;;;2.83;1.80;;;;;;;18.08;100.00;101383.88;2507554;23;20214;-68
2023/08/08 02:16:18;;;;;;;2.53;1.90;;;;;;;18.10;100.00;101375.00;2508511;23;20158;-68
2023/08/08 02:17:18;;;;;;;3.73;1.77;;;;;;;18.13;100.00;101380.44;2508531;23;20477;-68
2023/08/08 02:18:19;;;;;;;5.77;1.80;;;;;;;18.04;100.00;101383.22;2509291;23;20152;-68
2023/08/08 02:19:19;;;;;;;2.27;1.80;;;;;;;18.08;100.00;101385.13;2509302;23;20191;-68
2023/08/08 02:20:19;;;;;;;4.50;1.80;;;;;;;17.88;100.00;101367.94;2508605;23;20152;-68
2023/08/08 02:21:20;;;;;;;3.27;1.80;;;;;;;18.04;100.00;101393.69;2509552;23;20575;-68
2023/08/08 02:22:20;;;;;;;4.97;1.73;;;;;;;17.82;100.00;101381.81;2509290;23;20172;-68
2023/08/08 02:23:21;;;;;;;3.80;2.00;;;;;;;17.15;100.00;101283.66;2509452;23;20632;-68
2023/08/08 02:24:21;;;;;;;3.23;2.10;;;;;;;17.91;100.00;101412.66;2509209;23;20161;-68
2023/08/08 02:25:22;;;;;;;2.87;1.80;;;;;;;17.90;100.00;101411.09;2509376;23;20166;-68
2023/08/08 02:26:22;;;;;;;3.00;2.30;;;;;;;17.87;100.00;101411.25;2509289;23;20178;-68
2023/08/08 02:27:23;;;;;;;3.83;2.10;;;;;;;17.90;100.00;101413.13;2508838;23;20486;-68
2023/08/08 02:28:23;;;;;;;3.27;2.10;;;;;;;17.94;100.00;101409.69;2509064;23;20159;-68
2023/08/08 02:29:23;;;;;;;3.23;2.03;;;;;;;17.98;100.00;101415.94;2508968;23;20429;-68
2023/08/08 02:30:24;;;;;;;3.33;2.33;;;;;;;17.97;100.00;101410.03;2508400;23;20234;-68
2023/08/08 02:31:24;;;;;;;3.00;2.00;;;;;;;17.86;100.00;101398.47;2509447;23;20163;-67
2023/08/08 02:32:25;;;;;;;2.40;2.10;;;;;;;17.93;100.00;101410.94;2508893;23;20226;-68
2023/08/08 02:33:25;;;;;;;3.73;2.20;;;;;;;17.92;100.00;101417.03;2509423;23;20170;-68
2023/08/08 02:34:25;;;;;;;4.20;2.10;;;;;;;17.91;100.00;101417.50;2508406;23;20163;-68
2023/08/08 02:35:26;;;;;;;3.90;2.30;;;;;;;17.86;100.00;101409.69;2509265;23;20613;-68
2023/08/08 02:36:26;;;;;;;3.80;2.40;;;;;;;17.82;100.00;101423.06;2509040;23;20216;-67
2023/08/08 02:37:27;;;;;;;2.20;2.00;;;;;;;17.80;100.00;101419.97;2508839;23;20239;-68
2023/08/08 02:38:27;;;;;;;2.83;2.50;;;;;;;17.79;100.00;101430.38;2508942;23;20148;-68
2023/08/08 02:39:28;;;;;;;3.27;2.60;;;;;;;17.60;100.00;101394.34;2509337;23;20160;-68
2023/08/08 02:40:28;;;;;;;4.07;2.40;;;;;;;17.82;100.00;101417.47;2508566;23;20152;-68
2023/08/08 02:41:29;;;;;;;5.20;2.40;;;;;;;17.81;100.00;101415.91;2509341;23;20266;-68
2023/08/08 02:42:29;;;;;;;2.90;2.40;;;;;;;17.73;100.00;101401.41;2509176;23;20172;-68
2023/08/08 02:43:29;;;;;;;3.93;2.33;;;;;;;17.88;100.00;101410.00;2508956;23;20194;-68
2023/08/08 02:44:30;;;;;;;3.30;2.57;;;;;;;17.83;100.00;101421.81;2508854;23;20552;-68
2023/08/08 02:45:30;;;;;;;3.33;2.33;;;;;;;17.84;100.00;101415.75;2509328;23;20163;-68
2023/08/08 02:46:31;;;;;;;3.63;2.37;;;;;;;17.81;100.00;101421.53;2508946;23;20204;-68
2023/08/08 02:47:31;;;;;;;2.80;2.43;;;;;;;17.83;100.00;101417.00;2508925;23;20481;-68
2023/08/08 02:48:32;;;;;;;3.43;2.50;;;;;;;17.87;100.00;101439.28;2508967;23;20155;-68
2023/08/08 02:49:33;;;;;;;3.10;2.50;;;;;;;17.82;100.00;101414.66;2496658;23;20163;-68
2023/08/08 02:50:34;;;;;;;5.70;2.60;;;;;;;17.08;100.00;101306.34;2495886;23;20520;-68
2023/08/08 02:51:34;;;;;;;3.53;2.53;;;;;;;17.79;100.00;101416.38;2496570;23;20153;-68
2023/08/08 02:52:34;;;;;;;3.50;2.50;;;;;;;17.80;100.00;101420.72;2496344;23;20668;-68
2023/08/08 02:53:35;;;;;;;3.30;2.67;;;;;;;17.36;100.00;101357.66;2509088;23;20606;-68
2023/08/08 02:54:35;;;;;;;3.80;2.63;;;;;;;17.82;100.00;101425.88;2508989;23;20256;-68
2023/08/08 02:55:36;;;;;;;3.83;2.73;;;;;;;17.84;100.00;101429.78;2508948;23;20161;-68
2023/08/08 02:56:37;;;;;;;4.70;2.53;;;;;;;17.71;100.00;101414.31;2509068;23;20160;-68
2023/08/08 02:57:37;;;;;;;3.00;2.60;;;;;;;17.83;100.00;101427.44;2508373;23;20380;-68
2023/08/08 02:58:38;;;;;;;5.83;3.17;;;;;;;17.83;100.00;101438.66;2496556;23;20167;-69
2023/08/08 02:59:38;;;;;;;5.63;2.90;;;;;;;17.34;100.00;101374.13;2496655;23;20162;-68
2023/08/08 03:00:38;;;;;;;3.87;2.67;;;;;;;17.78;100.00;101443.63;2508484;23;20185;-68
2023/08/08 03:01:39;;;;;;;4.00;2.90;;;;;;;17.77;100.00;101440.50;2509101;23;20176;-68
2023/08/08 03:02:39;;;;;;;5.20;3.00;;;;;;;17.78;100.00;101437.25;2508936;23;20503;-68
2023/08/08 03:03:40;;;;;;;4.53;2.90;;;;;;;17.77;100.00;101438.50;2509263;23;20235;-69
2023/08/08 03:04:40;;;;;;;4.00;2.90;;;;;;;17.77;100.00;101436.44;2509031;23;20163;-68
2023/08/08 03:05:40;;;;;;;7.43;3.53;;;;;;;17.78;100.00;101437.25;2509102;23;20163;-68
2023/08/08 03:06:41;;;;;;;3.33;2.90;;;;;;;17.76;100.00;101441.75;2509144;23;20185;-69
2023/08/08 03:07:41;;;;;;;4.40;3.00;;;;;;;17.77;100.00;101441.28;2509166;23;20155;-68
2023/08/08 03:08:42;;;;;;;3.20;2.90;;;;;;;17.77;100.00;101439.25;2508994;23;20159;-68
2023/08/08 03:09:42;;;;;;;5.57;3.10;;;;;;;17.57;100.00;101406.47;2509154;23;20262;-68
2023/08/08 03:10:43;;;;;;;5.90;3.07;;;;;;;17.66;100.00;101426.13;2495655;23;20174;-68
2023/08/08 03:11:43;;;;;;;4.10;2.90;;;;;;;17.78;100.00;101440.03;2496366;23;20189;-68
2023/08/08 03:12:44;;;;;;;4.03;3.20;;;;;;;17.73;100.00;101440.66;2508351;23;20176;-68
2023/08/08 03:13:44;;;;;;;4.17;2.77;;;;;;;17.72;100.00;101439.09;2509162;23;20234;-68
2023/08/08 03:14:44;;;;;;;5.23;3.33;;;;;;;17.71;100.00;101442.34;2508918;23;20161;-68
2023/08/08 03:15:45;;;;;;;3.33;3.03;;;;;;;17.32;100.00;101371.78;2509086;23;20155;-69
2023/08/08 03:16:45;;;;;;;5.53;3.10;;;;;;;16.90;100.00;101300.66;2508965;23;20610;-68
2023/08/08 03:17:46;;;;;;;5.10;2.90;;;;;;;17.81;100.00;101427.13;2508635;23;20610;-68
2023/08/08 03:18:46;;;;;;;4.70;3.03;;;;;;;17.73;100.00;101435.03;2508947;23;20202;-68
2023/08/08 03:19:47;;;;;;;4.17;2.77;;;;;;;17.67;100.00;101438.91;2509127;23;20185;-68
2023/08/08 03:20:47;;;;;;;4.33;2.97;;;;;;;17.63;100.00;101432.66;2508472;23;20155;-69
2023/08/08 03:21:48;;;;;;;3.57;3.23;;;;;;;17.67;100.00;101451.69;2509039;23;20176;-69
2023/08/08 03:22:48;;;;;;;5.60;3.30;;;;;;;17.69;100.00;101451.22;2508935;23;20598;-68
2023/08/08 03:23:48;;;;;;;3.97;2.80;;;;;;;17.61;100.00;101458.34;2509233;23;20156;-69
2023/08/08 03:24:49;;;;;;;3.50;2.87;;;;;;;17.58;100.00;101458.47;2508860;23;20166;-69
2023/08/08 03:25:49;;;;;;;3.20;2.90;;;;;;;17.61;100.00;101457.56;2509082;23;20179;-69
2023/08/08 03:26:50;;;;;;;3.43;3.00;;;;;;;17.60;100.00;101465.19;2508489;23;20158;-69
2023/08/08 03:27:51;;;;;;;3.20;2.70;;;;;;;17.55;100.00;101473.44;2508476;23;20152;-69
2023/08/08 03:28:53;;;;;;;2.83;2.60;;;;;;;17.54;100.00;101464.22;2508907;23;20159;-69
2023/08/08 03:29:53;;;;;;;3.33;3.00;;;;;;;17.53;100.00;101465.47;2509114;23;20399;-69
2023/08/08 03:30:54;;;;;;;3.90;2.70;;;;;;;17.18;100.00;101405.19;2508370;23;20379;-69
2023/08/08 03:31:54;;;;;;;4.23;2.90;;;;;;;17.58;100.00;101468.44;2508934;23;20187;-69
2023/08/08 03:32:54;;;;;;;4.40;3.30;;;;;;;17.57;100.00;101463.31;2509053;23;20165;-68
2023/08/08 03:33:55;;;;;;;3.60;2.70;;;;;;;17.38;100.00;101428.00;2508869;23;20234;-69
2023/08/08 03:34:55;;;;;;;4.47;2.80;;;;;;;17.63;100.00;101447.47;2508981;23;20593;-68
2023/08/08 03:35:56;;;;;;;4.23;2.60;;;;;;;17.31;100.00;101422.69;2508852;23;20242;-69
2023/08/08 03:36:56;;;;;;;4.60;2.60;;;;;;;17.50;100.00;101457.97;2508181;23;20239;-69
2023/08/08 03:37:56;;;;;;;3.57;2.50;;;;;;;17.56;100.00;101469.38;2508659;23;20155;-69
2023/08/08 03:38:57;;;;;;;6.00;2.63;;;;;;;17.61;100.00;101471.59;2508770;23;20205;-69
2023/08/08 03:39:57;;;;;;;3.57;2.57;;;;;;;17.14;100.00;101398.94;2508838;23;20159;-69
2023/08/08 03:40:58;;;;;;;3.53;2.17;;;;;;;17.58;100.00;101467.69;2508499;23;20175;-69
2023/08/08 03:41:58;;;;;;;3.93;2.93;;;;;;;17.58;100.00;101462.84;2509205;23;20152;-69
2023/08/08 03:42:59;;;;;;;3.27;2.80;;;;;;;17.64;100.00;101463.03;2508941;23;20625;-69
2023/08/08 03:43:59;;;;;;;5.17;2.80;;;;;;;17.65;100.00;101469.44;2509017;23;20155;-69
2023/08/08 03:44:59;;;;;;;4.90;3.00;;;;;;;17.62;100.00;101467.53;2508955;23;20182;-69
2023/08/08 03:46:00;;;;;;;5.87;3.07;;;;;;;17.67;100.00;101461.34;2508857;23;20152;-69
2023/08/08 03:47:00;;;;;;;4.07;2.80;;;;;;;17.69;100.00;101476.44;2508943;23;20159;-69
2023/08/08 03:48:01;;;;;;;4.73;2.93;;;;;;;17.36;100.00;101413.69;2508652;23;20156;-69
2023/08/08 03:49:01;;;;;;;7.10;2.77;;;;;;;16.92;100.00;101359.00;2509026;23;20158;-69
2023/08/08 03:50:02;;;;;;;4.23;2.87;;;;;;;17.77;100.00;101496.56;2495780;23;20158;-69
2023/08/08 03:51:03;;;;;;;5.83;2.97;;;;;;;17.35;100.00;101417.72;2495715;23;20161;-69
2023/08/08 03:52:04;;;;;;;4.33;2.70;;;;;;;17.61;100.00;101454.78;2508604;23;20433;-69
2023/08/08 03:53:04;;;;;;;5.53;3.20;;;;;;;17.81;100.00;101483.97;2508790;23;20156;-69
2023/08/08 03:54:05;;;;;;;8.83;3.13;;;;;;;17.81;100.00;101480.41;2508890;23;20214;-69
2023/08/08 03:55:05;;;;;;;3.80;3.13;;;;;;;17.83;100.00;101480.72;2508751;23;20183;-69
2023/08/08 03:56:07;;;;;;;5.13;2.60;;;;;;;17.16;100.00;101368.47;2508862;23;20153;-69
2023/08/08 03:57:07;;;;;;;6.57;3.10;;;;;;;17.80;100.00;101479.59;2508690;23;20172;-69
2023/08/08 03:58:08;;;;;;;2.30;2.10;;;;;;;17.85;100.00;101464.97;2508762;23;20381;-69
2023/08/08 03:59:08;;;;;;;2.83;2.50;;;;;;;17.82;100.00;101471.53;2508758;23;20491;-69
2023/08/08 04:00:09;;;;;;;3.47;2.20;;;;;;;17.43;100.00;101419.03;2508279;23;20497;-69
2023/08/08 04:01:10;;;;;;;4.67;2.43;;;;;;;17.83;100.00;101465.44;2508799;23;20611;-69
2023/08/08 04:02:10;;;;;;;2.77;2.33;;;;;;;17.78;100.00;101471.66;2509138;23;20381;-69
2023/08/08 04:03:10;;;;;;;4.23;2.40;;;;;;;17.82;100.00;101468.72;2507948;23;20602;-69
2023/08/08 04:04:11;;;;;;;2.93;2.47;;;;;;;17.81;100.00;101469.94;2508161;23;20152;-69
2023/08/08 04:05:12;;;;;;;3.90;2.37;;;;;;;17.83;100.00;101464.69;2508425;23;20176;-69
2023/08/08 04:06:12;;;;;;;3.50;2.60;;;;;;;17.86;100.00;101488.22;2508775;23;20154;-69
2023/08/08 04:07:12;;;;;;;3.50;2.47;;;;;;;17.82;100.00;101487.56;2508419;23;20152;-69
2023/08/08 04:08:14;;;;;;;4.30;2.57;;;;;;;17.82;100.00;101479.16;2509001;23;20155;-69
2023/08/08 04:09:14;;;;;;;4.77;2.60;;;;;;;17.83;100.00;101491.91;2508946;23;20662;-69
2023/08/08 04:10:15;;;;;;;6.20;2.63;;;;;;;17.25;100.00;101400.09;2508248;23;20955;-68
2023/08/08 04:11:16;;;;;;;8.20;2.70;;;;;;;17.60;100.00;101448.38;2508898;23;20533;-69
2023/08/08 04:12:17;;;;;;;5.17;2.33;;;;;;;17.81;100.00;101488.81;2508514;23;20210;-69
2023/08/08 04:13:17;;;;;;;4.10;2.57;;;;;;;17.78;100.00;101487.72;2508869;23;20393;-69
2023/08/08 04:14:17;;;;;;;3.13;2.20;;;;;;;17.78;100.00;101490.50;2508812;23;20556;-69
2023/08/08 04:15:18;;;;;;;2.93;2.23;;;;;;;17.75;100.00;101490.66;2508741;23;20508;-68
2023/08/08 04:16:18;;;;;;;3.53;2.27;;;;;;;17.72;100.00;101483.16;2508483;23;20251;-69
2023/08/08 04:17:19;;;;;;;5.30;2.50;;;;;;;17.70;100.00;101483.63;2508516;23;20151;-69
2023/08/08 04:18:19;;;;;;;2.90;2.10;;;;;;;17.72;100.00;101485.97;2508737;23;20176;-69
2023/08/08 04:19:19;;;;;;;2.60;2.30;;;;;;;17.70;100.00;101482.84;2508357;23;20222;-69
2023/08/08 04:20:20;;;;;;;2.73;2.17;;;;;;;17.65;100.00;101478.59;2508237;23;20176;-69
2023/08/08 04:21:20;;;;;;;2.27;2.00;;;;;;;17.53;100.00;101480.25;2508912;23;20161;-68
2023/08/08 04:22:21;;;;;;;2.83;2.17;;;;;;;17.49;100.00;101473.25;2508874;23;20156;-68
2023/08/08 04:23:25;;;;;;;5.77;2.37;;;;;;;17.52;100.00;101478.69;2508913;23;20234;-69
2023/08/08 04:24:25;;;;;;;3.10;2.10;;;;;;;17.57;100.00;101477.34;2508600;23;20170;-68
2023/08/08 04:25:26;;;;;;;3.37;2.20;;;;;;;17.14;100.00;101433.34;2508884;23;20391;-69
2023/08/08 04:26:27;;;;;;;3.93;2.17;;;;;;;17.02;100.00;101425.00;2506939;23;20162;-68
2023/08/08 04:27:27;;;;;;;5.13;2.30;;;;;;;17.23;100.00;101466.22;2505807;23;20946;-69
2023/08/08 04:28:28;;;;;;;2.73;2.23;;;;;;;17.32;100.00;101475.44;2505879;23;20158;-68
2023/08/08 04:30:47;;;;;;;3.63;1.93;;;;;;;16.54;100.00;101375.22;2505107;23;20535;-68
2023/08/08 04:31:47;;;;;;;3.20;2.20;;;;;;;17.23;100.00;101483.03;2505904;23;20387;-68
2023/08/08 04:32:48;;;;;;;4.13;2.20;;;;;;;16.64;100.00;101396.44;2506079;23;20184;-69
2023/08/08 04:33:48;;;;;;;3.30;1.97;;;;;;;17.18;100.00;101484.41;2506211;23;20165;-68
2023/08/08 04:34:49;;;;;;;2.67;2.20;;;;;;;17.15;100.00;101490.09;2506074;23;20191;-69
2023/08/08 04:35:49;;;;;;;4.77;2.30;;;;;;;17.10;100.00;101491.50;2506178;23;20165;-69
2023/08/08 04:36:49;;;;;;;3.87;1.80;;;;;;;17.06;100.00;101492.88;2505972;23;20767;-68
2023/08/08 04:37:50;;;;;;;3.80;1.90;;;;;;;17.13;100.00;101499.00;2505667;23;20507;-68
2023/08/08 04:38:50;;;;;;;2.50;1.90;;;;;;;17.17;100.00;101501.66;2506068;23;20313;-68
2023/08/08 04:39:51;;;;;;;1.70;1.60;;;;;;;17.22;100.00;101498.28;2506090;23;20163;-68
2023/08/08 04:40:51;;;;;;;3.80;1.80;;;;;;;17.09;100.00;101472.34;2505324;23;20558;-68
2023/08/08 04:41:51;;;;;;;6.27;2.33;;;;;;;17.13;100.00;101529.00;2506582;23;20567;-68
2023/08/08 04:42:52;;;;;;;5.93;2.20;;;;;;;17.03;100.00;101491.75;2505884;23;20496;-68